메인 페이지
METAR-TAF:

METAR-TAF

공항 :

Naval Air Station JRB Fort Worth (Carswell Field)

포트워스, 텍사스, 미국

위도: 32-45-57N, 경도: 097-26-00W, 고도: 198m

현재 날씨관측

예보는 47분 전, 12:52시(UTC)에 발표되었습니다.
남동3kt
온도 25°C
습도 83%
기압 1015 hPa
시정: 16.1km
고도 3500ft 상공 구름 조금
고도 8000ft 상공 흐림

METAR: KNFW 141252Z 14003KT 10SM FEW035 OVC080 25/22 A2998 RMK AO2 RAE36 TSB19E35 SLP136 CB 20 NW MOVG NE P0001 T02500217 $

시각: 08:39 (13:39 UTC)

예보

예보 대상 시간: 14일 12시부터 15일 07시까지 (UTC)
남동6kt
시정 10km 이상
고도 5000ft 상공 구름 보통, 적란운.
고도 10000ft 상공 구름 많음
시계 내 뇌우
일시적
14일 13시부터 14일 16시까지 (UTC)
시정: 4800m
고도 2500ft 상공 구름 많음, 적란운.
고도 4000ft 상공 흐림
뇌우, 약한비
14일 1600시부터 (UTC)
10kt
시정 10km 이상
고도 5000ft 상공 구름 보통
고도 10000ft 상공 구름 많음
고도 25000ft 상공 구름 많음
시계 내 소나기
14일 1800시부터 (UTC)
13kt
시정 10km 이상
고도 4000ft 상공 구름 많음, 적란운.
고도 12000ft 상공 구름 많음
고도 25000ft 상공 구름 많음
시계 내 뇌우
14일 2300시부터 (UTC)
10kt
시정: 1215m
고도 4000ft 상공 구름 조금
고도 25000ft 상공 구름 보통

TAF: KNFW 1412/1507 14006KT 9999 VCTS SCT050CB BKN100 QNH2994INS TEMPO 1413/1416 4800 -TSRA BKN025CB OVC040 FM141600 18010KT 9999 VCSH SCT050 BKN100 BKN250 QNH2996INS FM141800 19013KT 9999 VCTS BKN040CB BKN120 BKN250 QNH2990INS FM142300 18010KT 9999 FEW040 SCT250 QNH2987INS T23/1412Z T34/1422Z AMD 1215 FN20046

4,000개 이상의 공항 관측 자료 및 예보 (METAR 및 TAF 보고).

지도상에서 검색 가능한 기상관측소가 노란 점과 빨간 점으로 표시되어 있습니다.

기상관측소 명을 보려면 표시 위로 마우스를 이동하세요.

날씨 관측과 예보를 보려면 클릭하세요.

지도 변경 : 확대하려면 엑스 표시가 있는 녹색 버튼, 축소하려면 빼기 표시가 있는 녹색 버튼, 다음 페이지의 지도를 보려면 녹색 화살표를 클릭하세요.


METAR-TAF: